sensor_id;sensor_type;location;lat;lon;timestamp;temperature;humidity
56046;DHT22;41913;51.030;3.706;2024-01-15T00:00:44;20.20;66.40
56046;DHT22;41913;51.030;3.706;2024-01-15T00:03:10;20.20;66.30
56046;DHT22;41913;51.030;3.706;2024-01-15T00:05:36;20.20;66.40
56046;DHT22;41913;51.030;3.706;2024-01-15T00:08:02;20.10;66.20
56046;DHT22;41913;51.030;3.706;2024-01-15T00:10:27;20.10;66.10
56046;DHT22;41913;51.030;3.706;2024-01-15T00:12:53;20.10;66.10
56046;DHT22;41913;51.030;3.706;2024-01-15T00:15:19;20.10;66.00
56046;DHT22;41913;51.030;3.706;2024-01-15T00:17:45;20.10;66.00
56046;DHT22;41913;51.030;3.706;2024-01-15T00:20:11;20.10;66.00
56046;DHT22;41913;51.030;3.706;2024-01-15T00:22:37;20.10;66.20
56046;DHT22;41913;51.030;3.706;2024-01-15T00:25:04;20.20;66.20
56046;DHT22;41913;51.030;3.706;2024-01-15T00:27:30;20.20;66.30
56046;DHT22;41913;51.030;3.706;2024-01-15T00:29:55;20.10;66.20
56046;DHT22;41913;51.030;3.706;2024-01-15T00:32:21;20.10;66.10
56046;DHT22;41913;51.030;3.706;2024-01-15T00:34:47;20.10;65.90
56046;DHT22;41913;51.030;3.706;2024-01-15T00:37:13;20.10;66.00
56046;DHT22;41913;51.030;3.706;2024-01-15T00:39:39;20.10;66.00
56046;DHT22;41913;51.030;3.706;2024-01-15T00:42:04;20.10;66.00
56046;DHT22;41913;51.030;3.706;2024-01-15T00:44:30;20.10;66.00
56046;DHT22;41913;51.030;3.706;2024-01-15T00:46:56;20.10;65.90
56046;DHT22;41913;51.030;3.706;2024-01-15T00:49:22;20.10;65.90
56046;DHT22;41913;51.030;3.706;2024-01-15T00:51:47;20.10;66.00
56046;DHT22;41913;51.030;3.706;2024-01-15T00:54:13;20.10;66.00
56046;DHT22;41913;51.030;3.706;2024-01-15T00:56:39;20.10;65.90
56046;DHT22;41913;51.030;3.706;2024-01-15T00:59:05;20.10;65.90
56046;DHT22;41913;51.030;3.706;2024-01-15T01:01:31;20.10;65.80
56046;DHT22;41913;51.030;3.706;2024-01-15T01:03:57;20.10;65.90
56046;DHT22;41913;51.030;3.706;2024-01-15T01:06:22;20.10;65.90
56046;DHT22;41913;51.030;3.706;2024-01-15T01:08:48;20.10;66.00
56046;DHT22;41913;51.030;3.706;2024-01-15T01:11:15;20.10;65.90
56046;DHT22;41913;51.030;3.706;2024-01-15T01:13:41;20.10;65.80
56046;DHT22;41913;51.030;3.706;2024-01-15T01:16:07;20.10;65.80
56046;DHT22;41913;51.030;3.706;2024-01-15T01:18:33;20.10;66.00
56046;DHT22;41913;51.030;3.706;2024-01-15T01:20:59;20.10;65.90
56046;DHT22;41913;51.030;3.706;2024-01-15T01:23:25;20.10;65.90
56046;DHT22;41913;51.030;3.706;2024-01-15T01:25:50;20.10;65.80
56046;DHT22;41913;51.030;3.706;2024-01-15T01:28:16;20.00;65.70
56046;DHT22;41913;51.030;3.706;2024-01-15T01:30:42;20.00;65.70
56046;DHT22;41913;51.030;3.706;2024-01-15T01:33:08;20.10;65.80
56046;DHT22;41913;51.030;3.706;2024-01-15T01:35:34;20.10;65.80
56046;DHT22;41913;51.030;3.706;2024-01-15T01:37:59;20.10;65.70
56046;DHT22;41913;51.030;3.706;2024-01-15T01:40:25;20.10;65.70
56046;DHT22;41913;51.030;3.706;2024-01-15T01:42:51;20.10;65.80
56046;DHT22;41913;51.030;3.706;2024-01-15T01:45:17;20.10;65.90
56046;DHT22;41913;51.030;3.706;2024-01-15T01:47:42;20.10;65.80
56046;DHT22;41913;51.030;3.706;2024-01-15T01:50:08;20.10;65.80
56046;DHT22;41913;51.030;3.706;2024-01-15T01:52:34;20.10;65.80
56046;DHT22;41913;51.030;3.706;2024-01-15T01:55:02;20.00;65.70
56046;DHT22;41913;51.030;3.706;2024-01-15T01:57:30;20.00;65.70
56046;DHT22;41913;51.030;3.706;2024-01-15T01:59:58;20.00;65.70
56046;DHT22;41913;51.030;3.706;2024-01-15T02:02:24;20.10;65.80
56046;DHT22;41913;51.030;3.706;2024-01-15T02:04:50;20.10;65.80
56046;DHT22;41913;51.030;3.706;2024-01-15T02:07:16;20.10;65.90
56046;DHT22;41913;51.030;3.706;2024-01-15T02:09:44;20.10;65.90
56046;DHT22;41913;51.030;3.706;2024-01-15T02:12:11;20.00;65.90
56046;DHT22;41913;51.030;3.706;2024-01-15T02:14:36;20.00;65.80
56046;DHT22;41913;51.030;3.706;2024-01-15T02:17:02;20.00;65.70
56046;DHT22;41913;51.030;3.706;2024-01-15T02:19:28;20.00;65.70
56046;DHT22;41913;51.030;3.706;2024-01-15T02:21:55;20.00;65.60
56046;DHT22;41913;51.030;3.706;2024-01-15T02:24:21;20.00;65.70
56046;DHT22;41913;51.030;3.706;2024-01-15T02:26:46;20.00;65.80
56046;DHT22;41913;51.030;3.706;2024-01-15T02:29:12;20.10;65.90
56046;DHT22;41913;51.030;3.706;2024-01-15T02:31:39;20.00;65.90
56046;DHT22;41913;51.030;3.706;2024-01-15T02:34:05;20.10;65.80
56046;DHT22;41913;51.030;3.706;2024-01-15T02:36:32;20.00;65.60
56046;DHT22;41913;51.030;3.706;2024-01-15T02:38:58;20.00;65.40
56046;DHT22;41913;51.030;3.706;2024-01-15T02:41:23;20.00;65.30
56046;DHT22;41913;51.030;3.706;2024-01-15T02:43:49;19.90;65.20
56046;DHT22;41913;51.030;3.706;2024-01-15T02:46:15;20.00;65.30
56046;DHT22;41913;51.030;3.706;2024-01-15T02:48:41;20.00;65.30
56046;DHT22;41913;51.030;3.706;2024-01-15T02:51:07;20.00;65.40
56046;DHT22;41913;51.030;3.706;2024-01-15T02:53:33;20.00;65.40
56046;DHT22;41913;51.030;3.706;2024-01-15T02:55:59;20.00;65.40
56046;DHT22;41913;51.030;3.706;2024-01-15T02:58:24;20.00;65.40
56046;DHT22;41913;51.030;3.706;2024-01-15T03:00:50;20.00;65.40
56046;DHT22;41913;51.030;3.706;2024-01-15T03:03:16;20.00;65.30
56046;DHT22;41913;51.030;3.706;2024-01-15T03:05:42;20.00;65.70
56046;DHT22;41913;51.030;3.706;2024-01-15T03:08:07;20.00;65.10
56046;DHT22;41913;51.030;3.706;2024-01-15T03:10:33;19.90;65.00
56046;DHT22;41913;51.030;3.706;2024-01-15T03:12:59;19.90;65.00
56046;DHT22;41913;51.030;3.706;2024-01-15T03:15:24;19.90;65.10
56046;DHT22;41913;51.030;3.706;2024-01-15T03:17:50;19.90;65.10
56046;DHT22;41913;51.030;3.706;2024-01-15T03:20:16;20.00;65.20
56046;DHT22;41913;51.030;3.706;2024-01-15T03:22:42;20.00;65.20
56046;DHT22;41913;51.030;3.706;2024-01-15T03:25:08;20.00;65.10
56046;DHT22;41913;51.030;3.706;2024-01-15T03:27:33;20.00;65.10
56046;DHT22;41913;51.030;3.706;2024-01-15T03:29:59;20.00;65.00
56046;DHT22;41913;51.030;3.706;2024-01-15T03:32:25;19.90;64.90
56046;DHT22;41913;51.030;3.706;2024-01-15T03:34:51;19.90;64.80
56046;DHT22;41913;51.030;3.706;2024-01-15T03:37:18;19.90;64.80
56046;DHT22;41913;51.030;3.706;2024-01-15T03:39:43;19.90;64.70
56046;DHT22;41913;51.030;3.706;2024-01-15T03:42:09;19.90;64.70
56046;DHT22;41913;51.030;3.706;2024-01-15T03:44:35;20.00;64.90
56046;DHT22;41913;51.030;3.706;2024-01-15T03:47:01;19.90;65.00
56046;DHT22;41913;51.030;3.706;2024-01-15T03:49:27;20.00;65.10
56046;DHT22;41913;51.030;3.706;2024-01-15T03:51:52;20.00;65.00
56046;DHT22;41913;51.030;3.706;2024-01-15T03:54:18;20.00;64.80
56046;DHT22;41913;51.030;3.706;2024-01-15T03:56:44;19.90;64.70
56046;DHT22;41913;51.030;3.706;2024-01-15T03:59:09;19.90;64.60
56046;DHT22;41913;51.030;3.706;2024-01-15T04:01:35;19.90;64.50
56046;DHT22;41913;51.030;3.706;2024-01-15T04:04:01;19.90;64.50
56046;DHT22;41913;51.030;3.706;2024-01-15T04:06:27;19.90;64.50
56046;DHT22;41913;51.030;3.706;2024-01-15T04:08:52;19.90;64.60
56046;DHT22;41913;51.030;3.706;2024-01-15T04:11:18;19.90;64.80
56046;DHT22;41913;51.030;3.706;2024-01-15T04:13:44;19.90;64.70
56046;DHT22;41913;51.030;3.706;2024-01-15T04:16:10;19.90;64.80
56046;DHT22;41913;51.030;3.706;2024-01-15T04:18:36;20.00;65.30
56046;DHT22;41913;51.030;3.706;2024-01-15T04:21:04;19.90;64.60
56046;DHT22;41913;51.030;3.706;2024-01-15T04:23:31;19.90;64.50
56046;DHT22;41913;51.030;3.706;2024-01-15T04:25:57;19.90;64.40
56046;DHT22;41913;51.030;3.706;2024-01-15T04:28:23;19.90;64.40
56046;DHT22;41913;51.030;3.706;2024-01-15T04:30:48;19.90;64.40
56046;DHT22;41913;51.030;3.706;2024-01-15T04:33:14;19.90;64.40
56046;DHT22;41913;51.030;3.706;2024-01-15T04:35:40;19.90;64.50
56046;DHT22;41913;51.030;3.706;2024-01-15T04:38:06;19.90;64.60
56046;DHT22;41913;51.030;3.706;2024-01-15T04:40:32;19.90;64.60
56046;DHT22;41913;51.030;3.706;2024-01-15T04:42:57;19.90;64.60
56046;DHT22;41913;51.030;3.706;2024-01-15T04:45:23;19.90;64.50
56046;DHT22;41913;51.030;3.706;2024-01-15T04:47:54;19.90;64.40
56046;DHT22;41913;51.030;3.706;2024-01-15T04:50:21;19.90;64.40
56046;DHT22;41913;51.030;3.706;2024-01-15T04:52:47;19.90;64.30
56046;DHT22;41913;51.030;3.706;2024-01-15T04:55:13;19.90;64.30
56046;DHT22;41913;51.030;3.706;2024-01-15T04:57:38;19.90;64.30
56046;DHT22;41913;51.030;3.706;2024-01-15T05:00:04;19.90;64.40
56046;DHT22;41913;51.030;3.706;2024-01-15T05:02:30;19.90;64.50
56046;DHT22;41913;51.030;3.706;2024-01-15T05:04:56;19.90;64.50
56046;DHT22;41913;51.030;3.706;2024-01-15T05:07:22;19.90;64.50
56046;DHT22;41913;51.030;3.706;2024-01-15T05:09:47;19.90;64.40
56046;DHT22;41913;51.030;3.706;2024-01-15T05:12:13;19.90;64.40
56046;DHT22;41913;51.030;3.706;2024-01-15T05:14:39;19.90;64.30
56046;DHT22;41913;51.030;3.706;2024-01-15T05:17:04;19.90;64.30
56046;DHT22;41913;51.030;3.706;2024-01-15T05:19:30;19.80;64.20
56046;DHT22;41913;51.030;3.706;2024-01-15T05:21:56;19.90;64.20
56046;DHT22;41913;51.030;3.706;2024-01-15T05:24:22;19.80;64.20
56046;DHT22;41913;51.030;3.706;2024-01-15T05:26:47;19.90;64.30
56046;DHT22;41913;51.030;3.706;2024-01-15T05:29:13;19.90;64.40
56046;DHT22;41913;51.030;3.706;2024-01-15T05:31:39;19.90;64.40
56046;DHT22;41913;51.030;3.706;2024-01-15T05:34:05;19.90;64.40
56046;DHT22;41913;51.030;3.706;2024-01-15T05:36:30;19.90;64.40
56046;DHT22;41913;51.030;3.706;2024-01-15T05:38:56;19.90;64.40
56046;DHT22;41913;51.030;3.706;2024-01-15T05:41:22;19.90;64.20
56046;DHT22;41913;51.030;3.706;2024-01-15T05:43:48;19.90;64.20
56046;DHT22;41913;51.030;3.706;2024-01-15T05:46:13;19.90;64.10
56046;DHT22;41913;51.030;3.706;2024-01-15T05:48:41;19.80;64.10
56046;DHT22;41913;51.030;3.706;2024-01-15T05:51:06;19.90;64.20
56046;DHT22;41913;51.030;3.706;2024-01-15T05:53:32;19.90;64.20
56046;DHT22;41913;51.030;3.706;2024-01-15T05:55:58;19.90;64.30
56046;DHT22;41913;51.030;3.706;2024-01-15T05:58:24;19.90;64.30
56046;DHT22;41913;51.030;3.706;2024-01-15T06:00:49;19.90;64.30
56046;DHT22;41913;51.030;3.706;2024-01-15T06:03:18;19.90;64.20
56046;DHT22;41913;51.030;3.706;2024-01-15T06:05:44;19.90;64.20
56046;DHT22;41913;51.030;3.706;2024-01-15T06:08:10;19.90;64.10
56046;DHT22;41913;51.030;3.706;2024-01-15T06:10:35;19.80;64.00
56046;DHT22;41913;51.030;3.706;2024-01-15T06:13:04;19.80;64.00
56046;DHT22;41913;51.030;3.706;2024-01-15T06:15:30;19.80;64.00
56046;DHT22;41913;51.030;3.706;2024-01-15T06:17:55;19.80;64.10
56046;DHT22;41913;51.030;3.706;2024-01-15T06:20:21;19.80;64.10
56046;DHT22;41913;51.030;3.706;2024-01-15T06:22:47;19.90;64.20
56046;DHT22;41913;51.030;3.706;2024-01-15T06:25:14;19.90;64.20
56046;DHT22;41913;51.030;3.706;2024-01-15T06:27:39;19.90;64.20
56046;DHT22;41913;51.030;3.706;2024-01-15T06:30:05;19.90;64.50
56046;DHT22;41913;51.030;3.706;2024-01-15T06:32:32;19.90;64.70
56046;DHT22;41913;51.030;3.706;2024-01-15T06:34:58;19.90;64.80
56046;DHT22;41913;51.030;3.706;2024-01-15T06:37:23;20.00;65.40
56046;DHT22;41913;51.030;3.706;2024-01-15T06:39:49;20.00;64.80
56046;DHT22;41913;51.030;3.706;2024-01-15T06:42:15;20.10;64.80
56046;DHT22;41913;51.030;3.706;2024-01-15T06:44:41;20.10;64.70
56046;DHT22;41913;51.030;3.706;2024-01-15T06:47:06;20.10;64.70
56046;DHT22;41913;51.030;3.706;2024-01-15T06:49:32;20.20;66.70
56046;DHT22;41913;51.030;3.706;2024-01-15T06:51:59;20.30;71.60
56046;DHT22;41913;51.030;3.706;2024-01-15T06:54:24;20.50;74.20
56046;DHT22;41913;51.030;3.706;2024-01-15T06:56:51;20.60;75.30
56046;DHT22;41913;51.030;3.706;2024-01-15T06:59:17;20.60;72.80
56046;DHT22;41913;51.030;3.706;2024-01-15T07:01:43;20.70;69.40
56046;DHT22;41913;51.030;3.706;2024-01-15T07:04:10;20.60;67.50
56046;DHT22;41913;51.030;3.706;2024-01-15T07:06:36;20.60;66.60
56046;DHT22;41913;51.030;3.706;2024-01-15T07:09:02;20.60;66.10
56046;DHT22;41913;51.030;3.706;2024-01-15T07:11:28;20.60;65.70
56046;DHT22;41913;51.030;3.706;2024-01-15T07:13:54;20.60;65.50
56046;DHT22;41913;51.030;3.706;2024-01-15T07:16:19;20.60;65.10
56046;DHT22;41913;51.030;3.706;2024-01-15T07:18:46;20.60;65.10
56046;DHT22;41913;51.030;3.706;2024-01-15T07:21:12;20.60;64.90
56046;DHT22;41913;51.030;3.706;2024-01-15T07:23:38;20.60;65.30
56046;DHT22;41913;51.030;3.706;2024-01-15T07:26:04;20.60;64.40
56046;DHT22;41913;51.030;3.706;2024-01-15T07:28:30;20.60;64.20
56046;DHT22;41913;51.030;3.706;2024-01-15T07:30:57;20.60;63.90
56046;DHT22;41913;51.030;3.706;2024-01-15T07:33:23;20.60;63.70
56046;DHT22;41913;51.030;3.706;2024-01-15T07:35:48;20.60;63.60
56046;DHT22;41913;51.030;3.706;2024-01-15T07:38:14;20.60;63.60
56046;DHT22;41913;51.030;3.706;2024-01-15T07:40:40;20.60;63.50
56046;DHT22;41913;51.030;3.706;2024-01-15T07:43:07;20.60;63.50
56046;DHT22;41913;51.030;3.706;2024-01-15T07:45:33;20.50;63.30
56046;DHT22;41913;51.030;3.706;2024-01-15T07:47:58;20.60;63.30
56046;DHT22;41913;51.030;3.706;2024-01-15T07:50:24;20.60;63.30
56046;DHT22;41913;51.030;3.706;2024-01-15T07:52:50;20.50;63.20
56046;DHT22;41913;51.030;3.706;2024-01-15T07:55:16;20.60;63.30
56046;DHT22;41913;51.030;3.706;2024-01-15T07:57:41;20.60;63.30
56046;DHT22;41913;51.030;3.706;2024-01-15T08:00:07;20.50;63.20
56046;DHT22;41913;51.030;3.706;2024-01-15T08:02:35;20.50;63.20
56046;DHT22;41913;51.030;3.706;2024-01-15T08:05:01;20.50;63.20
56046;DHT22;41913;51.030;3.706;2024-01-15T08:07:27;20.50;63.10
56046;DHT22;41913;51.030;3.706;2024-01-15T08:09:53;20.50;63.00
56046;DHT22;41913;51.030;3.706;2024-01-15T08:12:19;20.50;63.00
56046;DHT22;41913;51.030;3.706;2024-01-15T08:14:47;20.50;63.00
56046;DHT22;41913;51.030;3.706;2024-01-15T08:17:12;20.50;63.00
56046;DHT22;41913;51.030;3.706;2024-01-15T08:19:38;20.50;63.00
56046;DHT22;41913;51.030;3.706;2024-01-15T08:22:06;20.50;63.00
56046;DHT22;41913;51.030;3.706;2024-01-15T08:24:32;20.40;62.80
56046;DHT22;41913;51.030;3.706;2024-01-15T08:26:59;20.40;62.80
56046;DHT22;41913;51.030;3.706;2024-01-15T08:29:26;20.40;62.80
56046;DHT22;41913;51.030;3.706;2024-01-15T08:31:53;20.40;62.80
56046;DHT22;41913;51.030;3.706;2024-01-15T08:34:18;20.40;62.80
56046;DHT22;41913;51.030;3.706;2024-01-15T08:36:44;20.30;62.80
56046;DHT22;41913;51.030;3.706;2024-01-15T08:39:10;20.30;62.90
56046;DHT22;41913;51.030;3.706;2024-01-15T08:41:36;20.30;62.80
56046;DHT22;41913;51.030;3.706;2024-01-15T08:44:02;20.30;62.80
56046;DHT22;41913;51.030;3.706;2024-01-15T08:46:28;20.20;62.80
56046;DHT22;41913;51.030;3.706;2024-01-15T08:48:54;20.20;62.80
56046;DHT22;41913;51.030;3.706;2024-01-15T08:51:20;20.30;62.80
56046;DHT22;41913;51.030;3.706;2024-01-15T08:53:46;20.20;62.70
56046;DHT22;41913;51.030;3.706;2024-01-15T08:56:13;20.20;62.70
56046;DHT22;41913;51.030;3.706;2024-01-15T08:58:38;20.20;62.70
56046;DHT22;41913;51.030;3.706;2024-01-15T09:01:04;20.20;62.60
56046;DHT22;41913;51.030;3.706;2024-01-15T09:03:31;20.20;62.60
56046;DHT22;41913;51.030;3.706;2024-01-15T09:05:57;20.20;62.60
56046;DHT22;41913;51.030;3.706;2024-01-15T09:08:23;20.20;62.60
56046;DHT22;41913;51.030;3.706;2024-01-15T09:10:48;20.20;62.50
56046;DHT22;41913;51.030;3.706;2024-01-15T09:13:14;20.20;62.50
56046;DHT22;41913;51.030;3.706;2024-01-15T09:15:41;20.20;62.50
56046;DHT22;41913;51.030;3.706;2024-01-15T09:18:08;20.20;62.50
56046;DHT22;41913;51.030;3.706;2024-01-15T09:20:34;20.20;62.60
56046;DHT22;41913;51.030;3.706;2024-01-15T09:22:59;20.20;62.60
56046;DHT22;41913;51.030;3.706;2024-01-15T09:25:25;20.20;62.60
56046;DHT22;41913;51.030;3.706;2024-01-15T09:27:51;20.20;62.50
56046;DHT22;41913;51.030;3.706;2024-01-15T09:30:17;20.10;62.40
56046;DHT22;41913;51.030;3.706;2024-01-15T09:32:43;20.10;62.30
56046;DHT22;41913;51.030;3.706;2024-01-15T09:35:09;20.20;62.50
56046;DHT22;41913;51.030;3.706;2024-01-15T09:37:35;20.10;62.40
56046;DHT22;41913;51.030;3.706;2024-01-15T09:40:01;20.10;62.30
56046;DHT22;41913;51.030;3.706;2024-01-15T09:42:28;20.10;62.50
56046;DHT22;41913;51.030;3.706;2024-01-15T09:44:54;20.10;62.40
56046;DHT22;41913;51.030;3.706;2024-01-15T09:47:21;20.10;62.50
56046;DHT22;41913;51.030;3.706;2024-01-15T09:49:47;20.10;62.50
56046;DHT22;41913;51.030;3.706;2024-01-15T09:52:14;20.10;62.40
56046;DHT22;41913;51.030;3.706;2024-01-15T09:54:43;20.10;62.40
56046;DHT22;41913;51.030;3.706;2024-01-15T09:57:09;20.10;62.30
56046;DHT22;41913;51.030;3.706;2024-01-15T09:59:35;20.10;62.30
56046;DHT22;41913;51.030;3.706;2024-01-15T10:02:02;20.10;62.40
56046;DHT22;41913;51.030;3.706;2024-01-15T10:04:28;20.10;62.40
56046;DHT22;41913;51.030;3.706;2024-01-15T10:06:55;20.10;62.10
56046;DHT22;41913;51.030;3.706;2024-01-15T10:09:22;20.10;62.20
56046;DHT22;41913;51.030;3.706;2024-01-15T10:11:48;20.10;62.20
56046;DHT22;41913;51.030;3.706;2024-01-15T10:14:14;20.10;62.50
56046;DHT22;41913;51.030;3.706;2024-01-15T10:16:40;20.00;62.60
56046;DHT22;41913;51.030;3.706;2024-01-15T10:19:08;20.00;62.70
56046;DHT22;41913;51.030;3.706;2024-01-15T10:21:34;20.00;63.00
56046;DHT22;41913;51.030;3.706;2024-01-15T10:24:01;20.00;63.10
56046;DHT22;41913;51.030;3.706;2024-01-15T10:26:27;20.00;63.10
56046;DHT22;41913;51.030;3.706;2024-01-15T10:28:52;20.00;63.10
56046;DHT22;41913;51.030;3.706;2024-01-15T10:31:18;20.00;63.20
56046;DHT22;41913;51.030;3.706;2024-01-15T10:33:48;20.00;63.30
56046;DHT22;41913;51.030;3.706;2024-01-15T10:36:16;20.00;63.30
56046;DHT22;41913;51.030;3.706;2024-01-15T10:38:43;20.00;63.30
56046;DHT22;41913;51.030;3.706;2024-01-15T10:41:09;20.00;63.40
56046;DHT22;41913;51.030;3.706;2024-01-15T10:43:35;19.90;63.40
56046;DHT22;41913;51.030;3.706;2024-01-15T10:46:01;19.90;63.40
56046;DHT22;41913;51.030;3.706;2024-01-15T10:48:27;19.90;63.40
56046;DHT22;41913;51.030;3.706;2024-01-15T10:50:56;19.90;63.40
56046;DHT22;41913;51.030;3.706;2024-01-15T10:53:23;19.90;63.50
56046;DHT22;41913;51.030;3.706;2024-01-15T10:55:50;19.90;63.50
56046;DHT22;41913;51.030;3.706;2024-01-15T10:58:17;19.90;63.60
56046;DHT22;41913;51.030;3.706;2024-01-15T11:00:44;20.00;63.70
56046;DHT22;41913;51.030;3.706;2024-01-15T11:03:10;20.00;63.70
56046;DHT22;41913;51.030;3.706;2024-01-15T11:05:42;20.00;63.70
56046;DHT22;41913;51.030;3.706;2024-01-15T11:08:08;19.90;63.70
56046;DHT22;41913;51.030;3.706;2024-01-15T11:10:47;19.90;63.70
56046;DHT22;41913;51.030;3.706;2024-01-15T11:16:06;19.90;63.80
56046;DHT22;41913;51.030;3.706;2024-01-15T11:18:39;19.90;63.80
56046;DHT22;41913;51.030;3.706;2024-01-15T11:23:57;19.90;63.80
56046;DHT22;41913;51.030;3.706;2024-01-15T11:26:30;19.90;63.70
56046;DHT22;41913;51.030;3.706;2024-01-15T11:28:58;19.90;63.70
56046;DHT22;41913;51.030;3.706;2024-01-15T11:34:08;19.90;63.80
56046;DHT22;41913;51.030;3.706;2024-01-15T11:41:57;19.90;64.00
56046;DHT22;41913;51.030;3.706;2024-01-15T11:44:23;19.90;64.00
56046;DHT22;41913;51.030;3.706;2024-01-15T11:46:59;19.90;64.00
56046;DHT22;41913;51.030;3.706;2024-01-15T11:52:05;19.90;64.00
56046;DHT22;41913;51.030;3.706;2024-01-15T11:54:37;19.90;63.90
56046;DHT22;41913;51.030;3.706;2024-01-15T11:57:07;19.90;64.00
56046;DHT22;41913;51.030;3.706;2024-01-15T11:59:35;19.90;64.00
56046;DHT22;41913;51.030;3.706;2024-01-15T12:02:02;19.80;64.00
56046;DHT22;41913;51.030;3.706;2024-01-15T12:04:28;19.80;64.00
56046;DHT22;41913;51.030;3.706;2024-01-15T12:06:54;19.80;64.00
56046;DHT22;41913;51.030;3.706;2024-01-15T12:09:20;19.80;64.00
56046;DHT22;41913;51.030;3.706;2024-01-15T12:11:53;19.90;64.00
56046;DHT22;41913;51.030;3.706;2024-01-15T12:14:21;19.90;64.00
56046;DHT22;41913;51.030;3.706;2024-01-15T12:16:47;19.90;64.00
56046;DHT22;41913;51.030;3.706;2024-01-15T12:19:15;19.90;64.00
56046;DHT22;41913;51.030;3.706;2024-01-15T12:21:41;19.90;64.00
56046;DHT22;41913;51.030;3.706;2024-01-15T12:24:07;19.90;64.00
56046;DHT22;41913;51.030;3.706;2024-01-15T12:26:34;19.90;64.10
56046;DHT22;41913;51.030;3.706;2024-01-15T12:29:02;19.80;64.10
56046;DHT22;41913;51.030;3.706;2024-01-15T12:31:29;19.90;64.20
56046;DHT22;41913;51.030;3.706;2024-01-15T12:33:56;19.90;64.10
56046;DHT22;41913;51.030;3.706;2024-01-15T12:36:22;19.90;64.20
56046;DHT22;41913;51.030;3.706;2024-01-15T12:38:48;19.90;64.10
56046;DHT22;41913;51.030;3.706;2024-01-15T12:41:15;19.90;64.10
56046;DHT22;41913;51.030;3.706;2024-01-15T12:43:41;19.90;64.10
56046;DHT22;41913;51.030;3.706;2024-01-15T12:46:07;19.90;64.10
56046;DHT22;41913;51.030;3.706;2024-01-15T12:48:32;19.90;64.10
56046;DHT22;41913;51.030;3.706;2024-01-15T12:50:58;19.80;64.10
56046;DHT22;41913;51.030;3.706;2024-01-15T12:53:24;19.90;64.20
56046;DHT22;41913;51.030;3.706;2024-01-15T12:55:50;19.80;64.10
56046;DHT22;41913;51.030;3.706;2024-01-15T12:58:15;19.80;64.20
56046;DHT22;41913;51.030;3.706;2024-01-15T13:00:41;19.90;64.20
56046;DHT22;41913;51.030;3.706;2024-01-15T13:03:07;19.90;64.20
56046;DHT22;41913;51.030;3.706;2024-01-15T13:05:33;19.90;64.20
56046;DHT22;41913;51.030;3.706;2024-01-15T13:08:02;19.90;64.20
56046;DHT22;41913;51.030;3.706;2024-01-15T13:10:28;19.90;64.10
56046;DHT22;41913;51.030;3.706;2024-01-15T13:12:55;19.80;64.10
56046;DHT22;41913;51.030;3.706;2024-01-15T13:15:21;19.80;64.10
56046;DHT22;41913;51.030;3.706;2024-01-15T13:17:47;19.80;64.20
56046;DHT22;41913;51.030;3.706;2024-01-15T13:20:13;19.80;64.20
56046;DHT22;41913;51.030;3.706;2024-01-15T13:22:38;19.80;64.20
56046;DHT22;41913;51.030;3.706;2024-01-15T13:25:06;19.80;64.20
56046;DHT22;41913;51.030;3.706;2024-01-15T13:27:34;19.90;64.30
56046;DHT22;41913;51.030;3.706;2024-01-15T13:30:03;19.80;64.20
56046;DHT22;41913;51.030;3.706;2024-01-15T13:32:29;19.90;64.20
56046;DHT22;41913;51.030;3.706;2024-01-15T13:34:56;19.90;64.30
56046;DHT22;41913;51.030;3.706;2024-01-15T13:37:22;19.80;64.20
56046;DHT22;41913;51.030;3.706;2024-01-15T13:39:50;19.80;64.20
56046;DHT22;41913;51.030;3.706;2024-01-15T13:42:18;19.80;64.20
56046;DHT22;41913;51.030;3.706;2024-01-15T13:44:43;19.80;64.30
56046;DHT22;41913;51.030;3.706;2024-01-15T13:47:09;19.80;64.30
56046;DHT22;41913;51.030;3.706;2024-01-15T13:49:36;19.90;64.30
56046;DHT22;41913;51.030;3.706;2024-01-15T13:52:03;19.80;64.30
56046;DHT22;41913;51.030;3.706;2024-01-15T13:54:31;19.90;64.30
56046;DHT22;41913;51.030;3.706;2024-01-15T13:56:57;19.90;64.30
56046;DHT22;41913;51.030;3.706;2024-01-15T13:59:24;19.90;64.30
56046;DHT22;41913;51.030;3.706;2024-01-15T14:01:50;19.80;64.30
56046;DHT22;41913;51.030;3.706;2024-01-15T14:04:16;19.80;64.30
56046;DHT22;41913;51.030;3.706;2024-01-15T14:06:42;19.80;64.30
56046;DHT22;41913;51.030;3.706;2024-01-15T14:09:07;19.80;64.40
56046;DHT22;41913;51.030;3.706;2024-01-15T14:11:37;19.80;64.40
56046;DHT22;41913;51.030;3.706;2024-01-15T14:14:03;19.80;64.40
56046;DHT22;41913;51.030;3.706;2024-01-15T14:16:29;19.80;64.40
56046;DHT22;41913;51.030;3.706;2024-01-15T14:18:54;19.90;64.40
56046;DHT22;41913;51.030;3.706;2024-01-15T14:21:20;19.90;64.40
56046;DHT22;41913;51.030;3.706;2024-01-15T14:23:46;19.90;64.30
56046;DHT22;41913;51.030;3.706;2024-01-15T14:26:13;19.80;64.30
56046;DHT22;41913;51.030;3.706;2024-01-15T14:28:38;19.90;64.40
56046;DHT22;41913;51.030;3.706;2024-01-15T14:31:04;19.80;64.30
56046;DHT22;41913;51.030;3.706;2024-01-15T14:33:31;19.80;64.30
56046;DHT22;41913;51.030;3.706;2024-01-15T14:35:57;19.80;64.30
56046;DHT22;41913;51.030;3.706;2024-01-15T14:38:23;19.80;64.40
56046;DHT22;41913;51.030;3.706;2024-01-15T14:40:49;19.90;64.50
56046;DHT22;41913;51.030;3.706;2024-01-15T14:43:15;19.90;64.50
56046;DHT22;41913;51.030;3.706;2024-01-15T14:45:42;19.90;64.40
56046;DHT22;41913;51.030;3.706;2024-01-15T14:48:09;19.90;64.50
56046;DHT22;41913;51.030;3.706;2024-01-15T14:50:34;19.90;64.50
56046;DHT22;41913;51.030;3.706;2024-01-15T14:53:00;19.80;64.40
56046;DHT22;41913;51.030;3.706;2024-01-15T14:55:27;19.80;64.40
56046;DHT22;41913;51.030;3.706;2024-01-15T14:57:53;19.80;64.50
56046;DHT22;41913;51.030;3.706;2024-01-15T15:00:18;19.80;64.50
56046;DHT22;41913;51.030;3.706;2024-01-15T15:02:45;19.90;64.50
56046;DHT22;41913;51.030;3.706;2024-01-15T15:05:11;19.90;64.60
56046;DHT22;41913;51.030;3.706;2024-01-15T15:07:39;19.90;64.60
56046;DHT22;41913;51.030;3.706;2024-01-15T15:10:06;19.90;64.60
56046;DHT22;41913;51.030;3.706;2024-01-15T15:12:32;19.90;64.50
56046;DHT22;41913;51.030;3.706;2024-01-15T15:14:58;19.90;64.50
56046;DHT22;41913;51.030;3.706;2024-01-15T15:17:23;19.90;64.60
56046;DHT22;41913;51.030;3.706;2024-01-15T15:19:49;19.90;64.50
56046;DHT22;41913;51.030;3.706;2024-01-15T15:22:16;19.90;64.40
56046;DHT22;41913;51.030;3.706;2024-01-15T15:24:42;19.90;64.40
56046;DHT22;41913;51.030;3.706;2024-01-15T15:27:10;19.90;64.40
56046;DHT22;41913;51.030;3.706;2024-01-15T15:29:36;19.90;64.40
56046;DHT22;41913;51.030;3.706;2024-01-15T15:32:02;19.90;64.50
56046;DHT22;41913;51.030;3.706;2024-01-15T15:34:28;19.90;64.50
56046;DHT22;41913;51.030;3.706;2024-01-15T15:36:54;19.90;64.50
56046;DHT22;41913;51.030;3.706;2024-01-15T15:39:21;19.90;64.50